sensor_id;sensor_type;location;lat;lon;timestamp;P1;durP1;ratioP1;P2;durP2;ratioP2
7929;SDS011;4010;42.698;23.124;2024-03-06T00:02:13;9.23;;;6.43;;
7929;SDS011;4010;42.698;23.124;2024-03-06T00:04:39;9.27;;;5.83;;
7929;SDS011;4010;42.698;23.124;2024-03-06T00:07:08;11.40;;;5.93;;
7929;SDS011;4010;42.698;23.124;2024-03-06T00:09:34;10.00;;;6.10;;
7929;SDS011;4010;42.698;23.124;2024-03-06T00:12:01;9.90;;;5.95;;
7929;SDS011;4010;42.698;23.124;2024-03-06T00:14:29;13.57;;;6.27;;
7929;SDS011;4010;42.698;23.124;2024-03-06T00:16:56;10.93;;;6.13;;
7929;SDS011;4010;42.698;23.124;2024-03-06T00:19:22;8.57;;;6.15;;
7929;SDS011;4010;42.698;23.124;2024-03-06T00:21:49;10.33;;;6.93;;
7929;SDS011;4010;42.698;23.124;2024-03-06T00:24:17;8.20;;;5.63;;
7929;SDS011;4010;42.698;23.124;2024-03-06T00:26:44;15.67;;;7.17;;
7929;SDS011;4010;42.698;23.124;2024-03-06T00:29:12;9.60;;;5.90;;
7929;SDS011;4010;42.698;23.124;2024-03-06T00:31:42;9.27;;;6.40;;
7929;SDS011;4010;42.698;23.124;2024-03-06T00:34:09;11.17;;;6.53;;
7929;SDS011;4010;42.698;23.124;2024-03-06T00:36:36;10.27;;;6.18;;
7929;SDS011;4010;42.698;23.124;2024-03-06T00:39:03;12.63;;;6.27;;
7929;SDS011;4010;42.698;23.124;2024-03-06T00:41:31;11.53;;;7.00;;
7929;SDS011;4010;42.698;23.124;2024-03-06T00:43:58;11.57;;;6.88;;
7929;SDS011;4010;42.698;23.124;2024-03-06T00:46:24;12.33;;;7.03;;
7929;SDS011;4010;42.698;23.124;2024-03-06T00:48:51;12.10;;;7.27;;
7929;SDS011;4010;42.698;23.124;2024-03-06T00:51:18;17.57;;;9.47;;
7929;SDS011;4010;42.698;23.124;2024-03-06T00:53:45;11.27;;;6.97;;
7929;SDS011;4010;42.698;23.124;2024-03-06T00:56:11;12.97;;;7.27;;
7929;SDS011;4010;42.698;23.124;2024-03-06T00:58:40;10.40;;;6.75;;
7929;SDS011;4010;42.698;23.124;2024-03-06T01:01:06;10.07;;;6.43;;
7929;SDS011;4010;42.698;23.124;2024-03-06T01:03:33;13.83;;;6.90;;
7929;SDS011;4010;42.698;23.124;2024-03-06T01:06:00;11.50;;;7.17;;
7929;SDS011;4010;42.698;23.124;2024-03-06T01:08:27;13.00;;;7.18;;
7929;SDS011;4010;42.698;23.124;2024-03-06T01:10:53;11.15;;;6.63;;
7929;SDS011;4010;42.698;23.124;2024-03-06T01:13:20;13.17;;;7.20;;
7929;SDS011;4010;42.698;23.124;2024-03-06T01:15:48;12.88;;;7.65;;
7929;SDS011;4010;42.698;23.124;2024-03-06T01:18:15;12.47;;;6.83;;
7929;SDS011;4010;42.698;23.124;2024-03-06T01:20:42;12.87;;;6.57;;
7929;SDS011;4010;42.698;23.124;2024-03-06T01:23:08;12.13;;;6.80;;
7929;SDS011;4010;42.698;23.124;2024-03-06T01:25:35;12.07;;;7.37;;
7929;SDS011;4010;42.698;23.124;2024-03-06T01:28:02;14.32;;;7.25;;
7929;SDS011;4010;42.698;23.124;2024-03-06T01:30:29;16.17;;;7.57;;
7929;SDS011;4010;42.698;23.124;2024-03-06T01:32:57;19.20;;;9.10;;
7929;SDS011;4010;42.698;23.124;2024-03-06T01:35:23;16.13;;;7.87;;
7929;SDS011;4010;42.698;23.124;2024-03-06T01:37:50;13.43;;;8.00;;
7929;SDS011;4010;42.698;23.124;2024-03-06T01:40:17;13.37;;;8.07;;
7929;SDS011;4010;42.698;23.124;2024-03-06T01:42:45;11.98;;;7.65;;
7929;SDS011;4010;42.698;23.124;2024-03-06T01:45:13;11.10;;;7.93;;
7929;SDS011;4010;42.698;23.124;2024-03-06T01:47:40;13.93;;;7.78;;
7929;SDS011;4010;42.698;23.124;2024-03-06T01:50:08;16.27;;;8.73;;
7929;SDS011;4010;42.698;23.124;2024-03-06T01:52:37;14.17;;;8.20;;
7929;SDS011;4010;42.698;23.124;2024-03-06T01:55:06;14.63;;;7.63;;
7929;SDS011;4010;42.698;23.124;2024-03-06T01:57:34;13.77;;;8.63;;
7929;SDS011;4010;42.698;23.124;2024-03-06T02:00:02;13.55;;;8.02;;
7929;SDS011;4010;42.698;23.124;2024-03-06T02:02:30;13.10;;;7.38;;
7929;SDS011;4010;42.698;23.124;2024-03-06T02:04:57;14.63;;;8.23;;
7929;SDS011;4010;42.698;23.124;2024-03-06T02:07:26;11.00;;;7.47;;
7929;SDS011;4010;42.698;23.124;2024-03-06T02:09:58;10.65;;;7.07;;
7929;SDS011;4010;42.698;23.124;2024-03-06T02:12:25;14.05;;;7.65;;
7929;SDS011;4010;42.698;23.124;2024-03-06T02:14:52;15.00;;;8.50;;
7929;SDS011;4010;42.698;23.124;2024-03-06T02:17:19;12.50;;;7.75;;
7929;SDS011;4010;42.698;23.124;2024-03-06T02:19:47;15.20;;;8.35;;
7929;SDS011;4010;42.698;23.124;2024-03-06T02:22:15;13.60;;;8.07;;
7929;SDS011;4010;42.698;23.124;2024-03-06T02:24:43;13.87;;;8.50;;
7929;SDS011;4010;42.698;23.124;2024-03-06T02:27:11;14.63;;;8.37;;
7929;SDS011;4010;42.698;23.124;2024-03-06T02:29:38;14.67;;;8.10;;
7929;SDS011;4010;42.698;23.124;2024-03-06T02:32:05;12.87;;;7.63;;
7929;SDS011;4010;42.698;23.124;2024-03-06T02:34:32;15.00;;;8.03;;
7929;SDS011;4010;42.698;23.124;2024-03-06T02:36:58;13.40;;;8.33;;
7929;SDS011;4010;42.698;23.124;2024-03-06T02:39:27;13.87;;;8.13;;
7929;SDS011;4010;42.698;23.124;2024-03-06T02:41:53;15.63;;;7.50;;
7929;SDS011;4010;42.698;23.124;2024-03-06T02:44:20;13.27;;;7.63;;
7929;SDS011;4010;42.698;23.124;2024-03-06T02:46:47;10.10;;;6.83;;
7929;SDS011;4010;42.698;23.124;2024-03-06T02:49:15;10.70;;;6.87;;
7929;SDS011;4010;42.698;23.124;2024-03-06T02:51:42;11.23;;;6.73;;
7929;SDS011;4010;42.698;23.124;2024-03-06T02:54:08;12.70;;;6.70;;
7929;SDS011;4010;42.698;23.124;2024-03-06T02:56:36;13.00;;;7.72;;
7929;SDS011;4010;42.698;23.124;2024-03-06T02:59:03;10.63;;;6.97;;
7929;SDS011;4010;42.698;23.124;2024-03-06T03:01:33;10.03;;;6.53;;
7929;SDS011;4010;42.698;23.124;2024-03-06T03:03:59;11.40;;;6.93;;
7929;SDS011;4010;42.698;23.124;2024-03-06T03:06:26;14.60;;;8.10;;
7929;SDS011;4010;42.698;23.124;2024-03-06T03:08:54;18.23;;;9.57;;
7929;SDS011;4010;42.698;23.124;2024-03-06T03:11:21;16.17;;;9.13;;
7929;SDS011;4010;42.698;23.124;2024-03-06T03:13:49;16.48;;;9.43;;
7929;SDS011;4010;42.698;23.124;2024-03-06T03:16:16;23.07;;;11.77;;
7929;SDS011;4010;42.698;23.124;2024-03-06T03:18:43;19.00;;;10.30;;
7929;SDS011;4010;42.698;23.124;2024-03-06T03:21:10;24.83;;;11.80;;
7929;SDS011;4010;42.698;23.124;2024-03-06T03:23:38;34.87;;;16.53;;
7929;SDS011;4010;42.698;23.124;2024-03-06T03:26:05;24.80;;;13.53;;
7929;SDS011;4010;42.698;23.124;2024-03-06T03:28:32;24.35;;;13.32;;
7929;SDS011;4010;42.698;23.124;2024-03-06T03:31:00;30.42;;;16.00;;
7929;SDS011;4010;42.698;23.124;2024-03-06T03:33:27;34.30;;;16.20;;
7929;SDS011;4010;42.698;23.124;2024-03-06T03:35:54;26.20;;;15.30;;
7929;SDS011;4010;42.698;23.124;2024-03-06T03:38:20;17.97;;;11.23;;
7929;SDS011;4010;42.698;23.124;2024-03-06T03:40:47;17.08;;;9.55;;
7929;SDS011;4010;42.698;23.124;2024-03-06T03:43:14;17.80;;;10.95;;
7929;SDS011;4010;42.698;23.124;2024-03-06T03:45:41;59.13;;;27.13;;
7929;SDS011;4010;42.698;23.124;2024-03-06T03:48:09;59.80;;;27.47;;
7929;SDS011;4010;42.698;23.124;2024-03-06T03:50:35;79.30;;;33.97;;
7929;SDS011;4010;42.698;23.124;2024-03-06T03:53:02;66.10;;;30.87;;
7929;SDS011;4010;42.698;23.124;2024-03-06T03:55:29;48.87;;;25.30;;
7929;SDS011;4010;42.698;23.124;2024-03-06T03:57:56;54.47;;;24.97;;
7929;SDS011;4010;42.698;23.124;2024-03-06T04:00:23;36.17;;;20.42;;
7929;SDS011;4010;42.698;23.124;2024-03-06T04:02:49;43.67;;;24.73;;
7929;SDS011;4010;42.698;23.124;2024-03-06T04:05:17;24.33;;;15.37;;
7929;SDS011;4010;42.698;23.124;2024-03-06T04:07:44;28.83;;;16.42;;
7929;SDS011;4010;42.698;23.124;2024-03-06T04:10:11;21.00;;;12.47;;
7929;SDS011;4010;42.698;23.124;2024-03-06T04:12:38;16.23;;;10.40;;
7929;SDS011;4010;42.698;23.124;2024-03-06T04:15:05;16.87;;;8.90;;
7929;SDS011;4010;42.698;23.124;2024-03-06T04:17:34;18.35;;;10.65;;
7929;SDS011;4010;42.698;23.124;2024-03-06T04:20:01;22.58;;;12.05;;
7929;SDS011;4010;42.698;23.124;2024-03-06T04:22:30;23.02;;;13.30;;
7929;SDS011;4010;42.698;23.124;2024-03-06T04:24:57;19.08;;;11.10;;
7929;SDS011;4010;42.698;23.124;2024-03-06T04:27:24;16.53;;;10.83;;
7929;SDS011;4010;42.698;23.124;2024-03-06T04:29:51;16.90;;;10.73;;
7929;SDS011;4010;42.698;23.124;2024-03-06T04:32:18;15.52;;;7.97;;
7929;SDS011;4010;42.698;23.124;2024-03-06T04:34:44;18.17;;;9.20;;
7929;SDS011;4010;42.698;23.124;2024-03-06T04:37:12;18.33;;;8.60;;
7929;SDS011;4010;42.698;23.124;2024-03-06T04:39:40;12.83;;;8.03;;
7929;SDS011;4010;42.698;23.124;2024-03-06T04:42:07;14.73;;;9.13;;
7929;SDS011;4010;42.698;23.124;2024-03-06T04:44:34;14.77;;;8.20;;
7929;SDS011;4010;42.698;23.124;2024-03-06T04:47:01;15.83;;;10.03;;
7929;SDS011;4010;42.698;23.124;2024-03-06T04:49:28;16.50;;;9.30;;
7929;SDS011;4010;42.698;23.124;2024-03-06T04:51:54;15.33;;;8.33;;
7929;SDS011;4010;42.698;23.124;2024-03-06T04:54:21;11.90;;;7.10;;
7929;SDS011;4010;42.698;23.124;2024-03-06T04:56:49;10.77;;;6.83;;
7929;SDS011;4010;42.698;23.124;2024-03-06T04:59:16;11.47;;;7.70;;
7929;SDS011;4010;42.698;23.124;2024-03-06T05:01:43;12.80;;;7.63;;
7929;SDS011;4010;42.698;23.124;2024-03-06T05:04:09;14.60;;;7.67;;
7929;SDS011;4010;42.698;23.124;2024-03-06T05:06:37;13.53;;;8.27;;
7929;SDS011;4010;42.698;23.124;2024-03-06T05:09:04;12.47;;;7.90;;
7929;SDS011;4010;42.698;23.124;2024-03-06T05:11:31;11.63;;;7.73;;
7929;SDS011;4010;42.698;23.124;2024-03-06T05:13:59;12.07;;;7.80;;
7929;SDS011;4010;42.698;23.124;2024-03-06T05:16:26;17.67;;;8.27;;
7929;SDS011;4010;42.698;23.124;2024-03-06T05:18:53;14.10;;;8.57;;
7929;SDS011;4010;42.698;23.124;2024-03-06T05:21:19;14.07;;;8.10;;
7929;SDS011;4010;42.698;23.124;2024-03-06T05:23:47;13.67;;;8.97;;
7929;SDS011;4010;42.698;23.124;2024-03-06T05:26:14;15.53;;;9.33;;
7929;SDS011;4010;42.698;23.124;2024-03-06T05:28:41;14.60;;;9.33;;
7929;SDS011;4010;42.698;23.124;2024-03-06T05:31:16;11.20;;;8.17;;
7929;SDS011;4010;42.698;23.124;2024-03-06T05:33:46;13.03;;;8.07;;
7929;SDS011;4010;42.698;23.124;2024-03-06T05:36:13;12.73;;;8.67;;
7929;SDS011;4010;42.698;23.124;2024-03-06T05:38:40;14.57;;;8.93;;
7929;SDS011;4010;42.698;23.124;2024-03-06T05:41:07;14.70;;;9.00;;
7929;SDS011;4010;42.698;23.124;2024-03-06T05:43:35;12.03;;;8.17;;
7929;SDS011;4010;42.698;23.124;2024-03-06T05:46:01;15.50;;;9.43;;
7929;SDS011;4010;42.698;23.124;2024-03-06T05:48:31;14.77;;;8.73;;
7929;SDS011;4010;42.698;23.124;2024-03-06T05:50:58;12.87;;;8.73;;
7929;SDS011;4010;42.698;23.124;2024-03-06T05:53:25;17.77;;;9.37;;
7929;SDS011;4010;42.698;23.124;2024-03-06T05:55:52;13.37;;;9.13;;
7929;SDS011;4010;42.698;23.124;2024-03-06T05:58:19;16.67;;;9.90;;
7929;SDS011;4010;42.698;23.124;2024-03-06T06:00:47;18.83;;;11.83;;
7929;SDS011;4010;42.698;23.124;2024-03-06T06:03:14;15.70;;;9.43;;
7929;SDS011;4010;42.698;23.124;2024-03-06T06:05:42;16.60;;;10.37;;
7929;SDS011;4010;42.698;23.124;2024-03-06T06:08:09;16.87;;;9.93;;
7929;SDS011;4010;42.698;23.124;2024-03-06T06:10:36;18.03;;;10.73;;
7929;SDS011;4010;42.698;23.124;2024-03-06T06:13:02;12.23;;;9.23;;
7929;SDS011;4010;42.698;23.124;2024-03-06T06:15:29;16.47;;;9.30;;
7929;SDS011;4010;42.698;23.124;2024-03-06T06:17:56;15.67;;;10.93;;
7929;SDS011;4010;42.698;23.124;2024-03-06T06:20:23;14.00;;;9.80;;
7929;SDS011;4010;42.698;23.124;2024-03-06T06:22:51;13.67;;;9.93;;
7929;SDS011;4010;42.698;23.124;2024-03-06T06:25:18;18.60;;;10.13;;
7929;SDS011;4010;42.698;23.124;2024-03-06T06:27:45;17.90;;;10.10;;
7929;SDS011;4010;42.698;23.124;2024-03-06T06:30:13;12.87;;;9.90;;
7929;SDS011;4010;42.698;23.124;2024-03-06T06:32:40;15.60;;;9.97;;
7929;SDS011;4010;42.698;23.124;2024-03-06T06:35:07;12.20;;;9.57;;
7929;SDS011;4010;42.698;23.124;2024-03-06T06:37:34;15.63;;;9.93;;
7929;SDS011;4010;42.698;23.124;2024-03-06T06:40:03;13.53;;;9.43;;
7929;SDS011;4010;42.698;23.124;2024-03-06T06:42:31;16.73;;;9.63;;
7929;SDS011;4010;42.698;23.124;2024-03-06T06:44:58;18.20;;;10.17;;
7929;SDS011;4010;42.698;23.124;2024-03-06T06:47:25;22.27;;;10.23;;
7929;SDS011;4010;42.698;23.124;2024-03-06T06:49:52;19.20;;;10.10;;
7929;SDS011;4010;42.698;23.124;2024-03-06T06:52:19;18.57;;;10.30;;
7929;SDS011;4010;42.698;23.124;2024-03-06T06:54:46;18.00;;;10.03;;
7929;SDS011;4010;42.698;23.124;2024-03-06T06:57:15;21.40;;;10.93;;
7929;SDS011;4010;42.698;23.124;2024-03-06T06:59:42;18.73;;;11.03;;
7929;SDS011;4010;42.698;23.124;2024-03-06T07:02:08;20.67;;;11.60;;
7929;SDS011;4010;42.698;23.124;2024-03-06T07:04:35;17.43;;;12.13;;
7929;SDS011;4010;42.698;23.124;2024-03-06T07:07:02;20.40;;;11.70;;
7929;SDS011;4010;42.698;23.124;2024-03-06T07:09:28;18.40;;;10.77;;
7929;SDS011;4010;42.698;23.124;2024-03-06T07:11:55;18.40;;;11.80;;
7929;SDS011;4010;42.698;23.124;2024-03-06T07:14:23;19.03;;;11.53;;
7929;SDS011;4010;42.698;23.124;2024-03-06T07:16:50;21.13;;;13.37;;
7929;SDS011;4010;42.698;23.124;2024-03-06T07:19:17;16.93;;;11.30;;
7929;SDS011;4010;42.698;23.124;2024-03-06T07:21:44;19.27;;;10.30;;
7929;SDS011;4010;42.698;23.124;2024-03-06T07:24:10;15.23;;;10.33;;
7929;SDS011;4010;42.698;23.124;2024-03-06T07:26:37;14.63;;;8.67;;
7929;SDS011;4010;42.698;23.124;2024-03-06T07:29:04;10.60;;;7.27;;
7929;SDS011;4010;42.698;23.124;2024-03-06T07:31:39;12.13;;;7.37;;
7929;SDS011;4010;42.698;23.124;2024-03-06T07:34:06;10.30;;;6.90;;
7929;SDS011;4010;42.698;23.124;2024-03-06T07:36:33;13.27;;;7.10;;
7929;SDS011;4010;42.698;23.124;2024-03-06T07:39:01;10.43;;;6.47;;
7929;SDS011;4010;42.698;23.124;2024-03-06T07:41:28;9.57;;;6.93;;
7929;SDS011;4010;42.698;23.124;2024-03-06T07:43:54;11.27;;;6.77;;
7929;SDS011;4010;42.698;23.124;2024-03-06T07:46:21;6.87;;;5.90;;
7929;SDS011;4010;42.698;23.124;2024-03-06T07:48:49;9.67;;;6.77;;
7929;SDS011;4010;42.698;23.124;2024-03-06T07:51:16;8.83;;;6.40;;
7929;SDS011;4010;42.698;23.124;2024-03-06T07:53:43;8.63;;;6.17;;
7929;SDS011;4010;42.698;23.124;2024-03-06T07:56:10;8.00;;;5.50;;
7929;SDS011;4010;42.698;23.124;2024-03-06T07:58:37;10.40;;;6.13;;
7929;SDS011;4010;42.698;23.124;2024-03-06T08:01:05;8.77;;;6.23;;
7929;SDS011;4010;42.698;23.124;2024-03-06T08:03:32;12.87;;;8.97;;
7929;SDS011;4010;42.698;23.124;2024-03-06T08:06:01;11.60;;;8.40;;
7929;SDS011;4010;42.698;23.124;2024-03-06T08:08:29;11.60;;;8.03;;
7929;SDS011;4010;42.698;23.124;2024-03-06T08:10:55;11.53;;;8.73;;
7929;SDS011;4010;42.698;23.124;2024-03-06T08:13:22;10.80;;;8.40;;
7929;SDS011;4010;42.698;23.124;2024-03-06T08:15:49;11.13;;;7.90;;
7929;SDS011;4010;42.698;23.124;2024-03-06T08:18:16;12.30;;;8.50;;
7929;SDS011;4010;42.698;23.124;2024-03-06T08:20:43;12.70;;;8.53;;
7929;SDS011;4010;42.698;23.124;2024-03-06T08:23:11;13.37;;;9.33;;
7929;SDS011;4010;42.698;23.124;2024-03-06T08:25:38;16.13;;;9.30;;
7929;SDS011;4010;42.698;23.124;2024-03-06T08:28:05;14.70;;;9.43;;
7929;SDS011;4010;42.698;23.124;2024-03-06T08:30:31;14.03;;;9.60;;
7929;SDS011;4010;42.698;23.124;2024-03-06T08:32:58;16.07;;;9.47;;
7929;SDS011;4010;42.698;23.124;2024-03-06T08:35:25;13.70;;;10.23;;
7929;SDS011;4010;42.698;23.124;2024-03-06T08:37:52;13.83;;;10.43;;
7929;SDS011;4010;42.698;23.124;2024-03-06T08:40:20;14.77;;;9.93;;
7929;SDS011;4010;42.698;23.124;2024-03-06T08:42:48;15.20;;;10.00;;
7929;SDS011;4010;42.698;23.124;2024-03-06T08:45:15;12.33;;;9.97;;
7929;SDS011;4010;42.698;23.124;2024-03-06T08:47:42;13.40;;;9.13;;
7929;SDS011;4010;42.698;23.124;2024-03-06T08:50:09;13.20;;;8.90;;
7929;SDS011;4010;42.698;23.124;2024-03-06T08:52:36;11.40;;;8.87;;
7929;SDS011;4010;42.698;23.124;2024-03-06T08:55:04;12.10;;;9.27;;
7929;SDS011;4010;42.698;23.124;2024-03-06T08:57:33;12.87;;;9.30;;
7929;SDS011;4010;42.698;23.124;2024-03-06T09:00:00;11.77;;;8.37;;
7929;SDS011;4010;42.698;23.124;2024-03-06T09:02:27;12.97;;;8.33;;
7929;SDS011;4010;42.698;23.124;2024-03-06T09:04:54;10.83;;;8.07;;
7929;SDS011;4010;42.698;23.124;2024-03-06T09:07:20;12.63;;;8.40;;
7929;SDS011;4010;42.698;23.124;2024-03-06T09:09:48;11.27;;;7.80;;
7929;SDS011;4010;42.698;23.124;2024-03-06T09:12:15;11.07;;;8.20;;
7929;SDS011;4010;42.698;23.124;2024-03-06T09:14:44;12.07;;;7.73;;
7929;SDS011;4010;42.698;23.124;2024-03-06T09:17:11;11.13;;;7.87;;
7929;SDS011;4010;42.698;23.124;2024-03-06T09:19:39;11.00;;;8.07;;
7929;SDS011;4010;42.698;23.124;2024-03-06T09:22:07;11.13;;;7.33;;
7929;SDS011;4010;42.698;23.124;2024-03-06T09:24:34;10.70;;;8.00;;
7929;SDS011;4010;42.698;23.124;2024-03-06T09:27:03;10.33;;;7.87;;
7929;SDS011;4010;42.698;23.124;2024-03-06T09:29:30;11.53;;;8.27;;
7929;SDS011;4010;42.698;23.124;2024-03-06T09:31:58;11.93;;;8.47;;
7929;SDS011;4010;42.698;23.124;2024-03-06T09:34:25;10.77;;;7.83;;
7929;SDS011;4010;42.698;23.124;2024-03-06T09:36:52;9.40;;;7.43;;
7929;SDS011;4010;42.698;23.124;2024-03-06T09:39:19;12.70;;;8.17;;
7929;SDS011;4010;42.698;23.124;2024-03-06T09:41:48;10.57;;;8.20;;
7929;SDS011;4010;42.698;23.124;2024-03-06T09:44:15;10.13;;;8.20;;
7929;SDS011;4010;42.698;23.124;2024-03-06T09:46:42;11.80;;;7.90;;
7929;SDS011;4010;42.698;23.124;2024-03-06T09:49:12;12.70;;;7.80;;
7929;SDS011;4010;42.698;23.124;2024-03-06T09:51:41;8.43;;;7.07;;
7929;SDS011;4010;42.698;23.124;2024-03-06T09:54:11;9.07;;;6.47;;
7929;SDS011;4010;42.698;23.124;2024-03-06T09:56:40;11.83;;;6.63;;
7929;SDS011;4010;42.698;23.124;2024-03-06T09:59:08;7.93;;;6.27;;
7929;SDS011;4010;42.698;23.124;2024-03-06T10:01:35;8.77;;;6.40;;
7929;SDS011;4010;42.698;23.124;2024-03-06T10:04:20;10.23;;;7.00;;
7929;SDS011;4010;42.698;23.124;2024-03-06T10:06:48;8.87;;;6.80;;
7929;SDS011;4010;42.698;23.124;2024-03-06T10:09:16;9.27;;;6.40;;
7929;SDS011;4010;42.698;23.124;2024-03-06T10:11:44;8.83;;;6.73;;
7929;SDS011;4010;42.698;23.124;2024-03-06T10:14:10;9.83;;;6.67;;
7929;SDS011;4010;42.698;23.124;2024-03-06T10:16:50;11.73;;;6.93;;
7929;SDS011;4010;42.698;23.124;2024-03-06T10:19:23;8.83;;;6.00;;
7929;SDS011;4010;42.698;23.124;2024-03-06T10:21:52;8.03;;;6.17;;
7929;SDS011;4010;42.698;23.124;2024-03-06T10:24:20;9.47;;;6.03;;
7929;SDS011;4010;42.698;23.124;2024-03-06T10:26:48;9.33;;;6.27;;
7929;SDS011;4010;42.698;23.124;2024-03-06T10:29:16;13.40;;;5.97;;
7929;SDS011;4010;42.698;23.124;2024-03-06T10:31:50;11.40;;;7.30;;
7929;SDS011;4010;42.698;23.124;2024-03-06T10:34:19;7.70;;;5.70;;
7929;SDS011;4010;42.698;23.124;2024-03-06T10:36:49;8.90;;;6.00;;
7929;SDS011;4010;42.698;23.124;2024-03-06T10:39:20;7.87;;;6.30;;
7929;SDS011;4010;42.698;23.124;2024-03-06T10:41:49;8.07;;;6.63;;
7929;SDS011;4010;42.698;23.124;2024-03-06T10:44:19;8.20;;;6.20;;
7929;SDS011;4010;42.698;23.124;2024-03-06T10:46:47;6.77;;;6.07;;
7929;SDS011;4010;42.698;23.124;2024-03-06T10:49:22;12.07;;;6.90;;
7929;SDS011;4010;42.698;23.124;2024-03-06T10:51:52;9.17;;;5.57;;
7929;SDS011;4010;42.698;23.124;2024-03-06T10:54:20;15.37;;;9.47;;
7929;SDS011;4010;42.698;23.124;2024-03-06T10:56:49;23.37;;;13.07;;
7929;SDS011;4010;42.698;23.124;2024-03-06T10:59:17;63.47;;;28.30;;
7929;SDS011;4010;42.698;23.124;2024-03-06T11:01:46;38.50;;;19.73;;
7929;SDS011;4010;42.698;23.124;2024-03-06T11:04:13;23.20;;;14.93;;
7929;SDS011;4010;42.698;23.124;2024-03-06T11:06:40;9.70;;;5.77;;
7929;SDS011;4010;42.698;23.124;2024-03-06T11:09:08;5.37;;;3.70;;
7929;SDS011;4010;42.698;23.124;2024-03-06T11:11:47;5.13;;;3.40;;
7929;SDS011;4010;42.698;23.124;2024-03-06T11:14:14;3.40;;;3.10;;
7929;SDS011;4010;42.698;23.124;2024-03-06T11:16:55;4.77;;;3.00;;
7929;SDS011;4010;42.698;23.124;2024-03-06T11:19:23;3.53;;;3.20;;
7929;SDS011;4010;42.698;23.124;2024-03-06T11:21:50;3.70;;;3.40;;
7929;SDS011;4010;42.698;23.124;2024-03-06T11:24:19;4.10;;;3.70;;
7929;SDS011;4010;42.698;23.124;2024-03-06T11:26:46;6.37;;;4.23;;
7929;SDS011;4010;42.698;23.124;2024-03-06T11:29:15;5.03;;;4.20;;
7929;SDS011;4010;42.698;23.124;2024-03-06T11:32:06;4.97;;;4.03;;
7929;SDS011;4010;42.698;23.124;2024-03-06T11:34:37;8.77;;;6.80;;
7929;SDS011;4010;42.698;23.124;2024-03-06T11:37:04;15.13;;;10.27;;
7929;SDS011;4010;42.698;23.124;2024-03-06T11:39:36;6.60;;;4.10;;
7929;SDS011;4010;42.698;23.124;2024-03-06T11:42:04;6.90;;;4.57;;
7929;SDS011;4010;42.698;23.124;2024-03-06T11:44:33;3.93;;;3.50;;
7929;SDS011;4010;42.698;23.124;2024-03-06T11:47:01;4.30;;;3.90;;
7929;SDS011;4010;42.698;23.124;2024-03-06T11:49:29;4.63;;;4.00;;
7929;SDS011;4010;42.698;23.124;2024-03-06T11:51:59;4.77;;;4.10;;
7929;SDS011;4010;42.698;23.124;2024-03-06T11:54:27;4.67;;;3.50;;
7929;SDS011;4010;42.698;23.124;2024-03-06T11:56:56;5.90;;;4.60;;
7929;SDS011;4010;42.698;23.124;2024-03-06T11:59:23;5.80;;;4.20;;
7929;SDS011;4010;42.698;23.124;2024-03-06T12:01:51;4.60;;;3.97;;
7929;SDS011;4010;42.698;23.124;2024-03-06T12:04:18;7.03;;;4.43;;
7929;SDS011;4010;42.698;23.124;2024-03-06T12:06:47;6.27;;;4.90;;
7929;SDS011;4010;42.698;23.124;2024-03-06T12:09:14;5.37;;;4.10;;
7929;SDS011;4010;42.698;23.124;2024-03-06T12:11:41;5.07;;;3.33;;
7929;SDS011;4010;42.698;23.124;2024-03-06T12:14:14;3.73;;;3.27;;
7929;SDS011;4010;42.698;23.124;2024-03-06T12:16:43;4.43;;;2.87;;
7929;SDS011;4010;42.698;23.124;2024-03-06T12:19:10;4.00;;;3.27;;
7929;SDS011;4010;42.698;23.124;2024-03-06T12:21:37;6.73;;;3.00;;
7929;SDS011;4010;42.698;23.124;2024-03-06T12:24:06;3.40;;;2.87;;
7929;SDS011;4010;42.698;23.124;2024-03-06T12:26:33;3.30;;;2.70;;
7929;SDS011;4010;42.698;23.124;2024-03-06T12:29:06;3.90;;;3.00;;
7929;SDS011;4010;42.698;23.124;2024-03-06T12:31:36;4.53;;;3.10;;
7929;SDS011;4010;42.698;23.124;2024-03-06T12:34:04;3.10;;;2.77;;
7929;SDS011;4010;42.698;23.124;2024-03-06T12:36:32;3.97;;;3.40;;
7929;SDS011;4010;42.698;23.124;2024-03-06T12:39:00;3.67;;;3.00;;
7929;SDS011;4010;42.698;23.124;2024-03-06T12:41:27;4.10;;;3.70;;
7929;SDS011;4010;42.698;23.124;2024-03-06T12:43:55;4.83;;;3.43;;
7929;SDS011;4010;42.698;23.124;2024-03-06T12:46:22;3.73;;;3.43;;
7929;SDS011;4010;42.698;23.124;2024-03-06T12:48:52;4.43;;;4.00;;
7929;SDS011;4010;42.698;23.124;2024-03-06T12:51:20;4.50;;;3.10;;
7929;SDS011;4010;42.698;23.124;2024-03-06T12:53:47;3.43;;;2.80;;
7929;SDS011;4010;42.698;23.124;2024-03-06T12:56:14;3.67;;;3.23;;
7929;SDS011;4010;42.698;23.124;2024-03-06T12:58:41;4.63;;;2.90;;
7929;SDS011;4010;42.698;23.124;2024-03-06T13:01:07;6.40;;;3.80;;
7929;SDS011;4010;42.698;23.124;2024-03-06T13:03:35;4.03;;;2.90;;
7929;SDS011;4010;42.698;23.124;2024-03-06T13:06:04;2.90;;;2.60;;
7929;SDS011;4010;42.698;23.124;2024-03-06T13:08:31;4.80;;;4.10;;
7929;SDS011;4010;42.698;23.124;2024-03-06T13:10:58;5.07;;;3.93;;
7929;SDS011;4010;42.698;23.124;2024-03-06T13:13:25;4.97;;;4.30;;
7929;SDS011;4010;42.698;23.124;2024-03-06T13:15:54;5.17;;;4.23;;
7929;SDS011;4010;42.698;23.124;2024-03-06T13:18:21;3.47;;;3.17;;
7929;SDS011;4010;42.698;23.124;2024-03-06T13:20:47;5.10;;;4.27;;
7929;SDS011;4010;42.698;23.124;2024-03-06T13:23:16;6.70;;;4.10;;
7929;SDS011;4010;42.698;23.124;2024-03-06T13:25:42;5.87;;;4.47;;
7929;SDS011;4010;42.698;23.124;2024-03-06T13:28:11;6.77;;;5.03;;
7929;SDS011;4010;42.698;23.124;2024-03-06T13:30:37;6.77;;;4.43;;
7929;SDS011;4010;42.698;23.124;2024-03-06T13:33:04;6.27;;;4.13;;
7929;SDS011;4010;42.698;23.124;2024-03-06T13:35:32;5.37;;;4.03;;
7929;SDS011;4010;42.698;23.124;2024-03-06T13:37:59;4.80;;;4.07;;
7929;SDS011;4010;42.698;23.124;2024-03-06T13:40:29;5.90;;;4.07;;
7929;SDS011;4010;42.698;23.124;2024-03-06T13:42:56;5.47;;;4.33;;
7929;SDS011;4010;42.698;23.124;2024-03-06T13:45:23;6.90;;;3.97;;
7929;SDS011;4010;42.698;23.124;2024-03-06T13:47:49;6.80;;;4.40;;
7929;SDS011;4010;42.698;23.124;2024-03-06T13:50:16;5.03;;;4.27;;
7929;SDS011;4010;42.698;23.124;2024-03-06T13:52:43;6.53;;;4.77;;
7929;SDS011;4010;42.698;23.124;2024-03-06T13:55:10;7.77;;;4.97;;
7929;SDS011;4010;42.698;23.124;2024-03-06T13:57:39;8.13;;;5.70;;
7929;SDS011;4010;42.698;23.124;2024-03-06T14:03:28;5.50;;;3.90;;
7929;SDS011;4010;42.698;23.124;2024-03-06T14:05:56;8.97;;;4.87;;
7929;SDS011;4010;42.698;23.124;2024-03-06T14:08:23;5.97;;;4.37;;
7929;SDS011;4010;42.698;23.124;2024-03-06T14:10:50;6.87;;;4.20;;
7929;SDS011;4010;42.698;23.124;2024-03-06T14:13:18;5.80;;;5.13;;
7929;SDS011;4010;42.698;23.124;2024-03-06T14:15:45;7.10;;;4.37;;
7929;SDS011;4010;42.698;23.124;2024-03-06T14:18:13;5.37;;;4.80;;
7929;SDS011;4010;42.698;23.124;2024-03-06T14:20:40;6.00;;;4.57;;
7929;SDS011;4010;42.698;23.124;2024-03-06T14:23:07;8.83;;;4.87;;
7929;SDS011;4010;42.698;23.124;2024-03-06T14:25:33;6.87;;;5.47;;
7929;SDS011;4010;42.698;23.124;2024-03-06T14:28:03;7.67;;;5.90;;
7929;SDS011;4010;42.698;23.124;2024-03-06T14:30:31;6.53;;;5.57;;
7929;SDS011;4010;42.698;23.124;2024-03-06T14:32:57;5.50;;;4.97;;
7929;SDS011;4010;42.698;23.124;2024-03-06T14:35:24;7.03;;;5.23;;
7929;SDS011;4010;42.698;23.124;2024-03-06T14:37:51;6.27;;;5.60;;
7929;SDS011;4010;42.698;23.124;2024-03-06T14:40:18;8.83;;;5.50;;
7929;SDS011;4010;42.698;23.124;2024-03-06T14:42:44;5.93;;;5.20;;
7929;SDS011;4010;42.698;23.124;2024-03-06T14:45:11;6.80;;;5.03;;
7929;SDS011;4010;42.698;23.124;2024-03-06T14:47:39;6.10;;;5.20;;
7929;SDS011;4010;42.698;23.124;2024-03-06T14:50:06;8.23;;;6.17;;
7929;SDS011;4010;42.698;23.124;2024-03-06T14:52:33;6.60;;;5.43;;
7929;SDS011;4010;42.698;23.124;2024-03-06T14:55:00;9.27;;;5.47;;
7929;SDS011;4010;42.698;23.124;2024-03-06T14:57:28;7.43;;;5.53;;